Time;durP1;ratioP1;P1;durP2;ratioP2;P2;SDS_P1;SDS_P2;PMS_P1;PMS_P2;Temp;Humidity;BMP_temperature;BMP_pressure;BME280_temperature;BME280_humidity;BME280_pressure;Samples;Min_cycle;Max_cycle;Signal;HPM_P1;HPM_P2
2023/01/12 00:01:53;;;;;;;5.03;3.47;;;;;;;5.20;100.00;96915.28;5048905;28;20206;-75
2023/01/12 00:04:20;;;;;;;6.27;4.20;;;;;;;5.23;100.00;96926.47;5043517;28;20233;-75
2023/01/12 00:06:47;;;;;;;10.43;3.97;;;;;;;5.25;100.00;96929.81;5042518;28;20195;-75
2023/01/12 00:09:16;;;;;;;4.00;3.60;;;;;;;5.24;100.00;96927.31;5042378;28;20194;-75
2023/01/12 00:11:43;;;;;;;6.53;4.60;;;;;;;5.10;100.00;96933.50;5046414;28;20336;-75
2023/01/12 00:14:10;;;;;;;5.40;4.10;;;;;;;5.12;100.00;96937.63;5048613;28;20278;-75
2023/01/12 00:16:37;;;;;;;5.13;4.13;;;;;;;5.15;100.00;96941.78;5043269;28;20203;-75
2023/01/12 00:19:14;;;;;;;4.20;3.60;;;;;;;5.13;100.00;96935.78;5043943;28;20217;-75
2023/01/12 00:21:55;;;;;;;4.63;3.53;;;;;;;5.17;100.00;96937.94;5036546;28;20209;-75
2023/01/12 00:24:25;;;;;;;6.80;3.50;;;;;;;5.16;100.00;96917.53;5042476;28;20233;-75
2023/01/12 00:26:53;;;;;;;7.03;3.97;;;;;;;5.16;100.00;96922.03;5041092;28;20206;-76
2023/01/12 00:29:21;;;;;;;5.43;3.80;;;;;;;5.16;100.00;96920.19;5045743;28;20207;-75
2023/01/12 00:31:48;;;;;;;6.33;3.80;;;;;;;5.20;100.00;96909.94;5047072;28;20252;-75
2023/01/12 00:34:16;;;;;;;5.87;3.60;;;;;;;5.17;100.00;96910.31;5042711;28;20553;-75
2023/01/12 00:36:43;;;;;;;5.30;4.00;;;;;;;5.12;100.00;96913.53;5039616;28;20202;-75
2023/01/12 00:39:10;;;;;;;4.20;3.80;;;;;;;5.12;100.00;96912.69;5044930;28;20189;-75
2023/01/12 00:47:10;;;;;;;4.73;3.77;;;;;;;5.04;100.00;96905.56;5058483;28;20300;-75
2023/01/12 00:49:41;;;;;;;5.87;3.53;;;;;;;4.90;100.00;96898.38;5043571;28;20281;-75
2023/01/12 00:52:10;;;;;;;8.53;3.40;;;;;;;4.91;100.00;96905.38;5043950;28;20194;-75
2023/01/12 00:54:37;;;;;;;4.63;3.20;;;;;;;4.89;100.00;96902.88;5041727;28;20229;-75
2023/01/12 00:57:09;;;;;;;4.17;3.10;;;;;;;4.91;100.00;96916.91;5032683;28;20230;-75
2023/01/12 00:59:36;;;;;;;5.97;3.50;;;;;;;4.92;100.00;96915.91;5045854;28;20305;-75
2023/01/12 01:02:04;;;;;;;4.40;3.77;;;;;;;4.89;100.00;96910.06;5048689;28;20285;-75
2023/01/12 01:04:33;;;;;;;5.93;2.97;;;;;;;4.89;100.00;96907.41;5052897;28;20254;-75
2023/01/12 01:07:00;;;;;;;2.93;2.30;;;;;;;4.80;100.00;96908.47;5035550;28;20199;-75
2023/01/12 01:09:27;;;;;;;2.73;2.00;;;;;;;4.75;100.00;96914.38;5029514;28;20238;-75
2023/01/12 01:11:54;;;;;;;3.07;1.60;;;;;;;4.80;100.00;96911.16;5043162;28;20222;-75
2023/01/12 01:14:22;;;;;;;2.23;2.03;;;;;;;4.80;100.00;96912.00;5044886;28;20290;-76
2023/01/12 01:16:49;;;;;;;2.70;1.53;;;;;;;4.79;100.00;96907.66;5029937;28;20194;-75
2023/01/12 01:19:16;;;;;;;1.80;1.43;;;;;;;4.75;100.00;96903.69;5042495;28;20276;-75
2023/01/12 01:21:44;;;;;;;2.80;1.50;;;;;;;4.78;100.00;96911.34;5045483;28;20213;-75
2023/01/12 01:24:13;;;;;;;2.97;1.40;;;;;;;4.71;100.00;96914.91;5042709;28;20230;-76
2023/01/12 01:26:40;;;;;;;2.33;1.33;;;;;;;4.66;100.00;96912.78;5044742;28;20344;-75
2023/01/12 01:29:08;;;;;;;2.00;1.37;;;;;;;4.67;100.00;96913.63;5048698;28;20194;-75
2023/01/12 01:31:37;;;;;;;3.10;1.80;;;;;;;4.66;100.00;96910.13;5037615;28;20232;-75
2023/01/12 01:34:06;;;;;;;2.13;1.37;;;;;;;4.55;100.00;96898.00;5034066;28;20206;-75
2023/01/12 01:36:33;;;;;;;2.77;1.30;;;;;;;4.54;100.00;96907.03;5042809;28;20256;-75
2023/01/12 01:39:00;;;;;;;3.73;1.60;;;;;;;4.44;100.00;96903.75;5040186;28;20221;-75
2023/01/12 01:41:31;;;;;;;2.20;1.20;;;;;;;4.33;100.00;96896.16;5047942;28;20285;-75
2023/01/12 01:44:00;;;;;;;3.57;2.27;;;;;;;4.31;100.00;96892.84;5037936;28;20222;-75
2023/01/12 01:46:38;;;;;;;4.03;2.03;;;;;;;4.40;100.00;96907.81;5041938;28;20542;-75
2023/01/12 01:49:15;;;;;;;3.13;1.90;;;;;;;4.37;100.00;96918.84;5034837;28;20215;-75
2023/01/12 01:51:43;;;;;;;2.83;2.07;;;;;;;4.36;100.00;96925.19;5042920;28;20212;-75
2023/01/12 01:54:11;;;;;;;2.50;1.97;;;;;;;4.39;100.00;96919.50;5041354;28;20202;-75
2023/01/12 01:56:38;;;;;;;3.37;2.00;;;;;;;4.34;100.00;96908.50;5045550;28;20230;-75
2023/01/12 01:59:10;;;;;;;2.53;1.30;;;;;;;4.37;100.00;96896.63;5036116;28;20253;-75
2023/01/12 02:01:38;;;;;;;1.93;1.30;;;;;;;4.22;100.00;96888.53;5038794;28;20218;-75
2023/01/12 02:04:08;;;;;;;3.43;1.43;;;;;;;4.12;100.00;96896.78;5045955;28;20202;-75
2023/01/12 02:06:36;;;;;;;2.43;1.67;;;;;;;4.03;100.00;96887.16;5044233;28;20249;-75
2023/01/12 02:09:09;;;;;;;2.17;1.50;;;;;;;4.10;100.00;96897.97;5045555;28;20205;-76
2023/01/12 02:17:19;;;;;;;3.53;1.70;;;;;;;4.07;100.00;96901.00;5031921;28;20199;-75
2023/01/12 02:20:18;;;;;;;1.77;1.30;;;;;;;4.06;100.00;96916.22;5046365;28;20206;-75
2023/01/12 02:23:21;;;;;;;2.27;1.67;;;;;;;4.07;100.00;96911.69;5031108;28;20218;-75
2023/01/12 02:26:14;;;;;;;2.03;1.47;;;;;;;4.06;100.00;96905.53;5031993;28;20231;-77
2023/01/12 02:29:08;;;;;;;2.33;1.50;;;;;;;4.03;100.00;96907.69;5047609;28;20264;-77
2023/01/12 02:31:45;;;;;;;3.23;1.90;;;;;;;3.97;100.00;96905.75;5041117;28;20293;-77
2023/01/12 02:34:27;;;;;;;1.70;1.43;;;;;;;3.93;100.00;96904.41;5034214;28;20209;-77
2023/01/12 02:37:03;;;;;;;3.70;1.60;;;;;;;3.91;100.00;96912.63;5042207;28;20206;-77
2023/01/12 02:39:35;;;;;;;5.57;2.20;;;;;;;3.88;100.00;96906.78;5034260;28;20272;-77
2023/01/12 02:45:01;;;;;;;2.63;1.77;;;;;;;3.70;100.00;96907.88;5042028;28;20271;-75
2023/01/12 02:47:39;;;;;;;3.13;2.30;;;;;;;3.65;100.00;96912.91;5060242;28;20260;-75
2023/01/12 02:50:11;;;;;;;2.93;1.87;;;;;;;3.67;100.00;96916.22;5046935;28;20275;-75
2023/01/12 02:52:43;;;;;;;2.33;1.53;;;;;;;3.58;100.00;96917.25;5044210;28;20248;-75
2023/01/12 02:55:14;;;;;;;3.93;1.60;;;;;;;3.50;100.00;96919.97;5042915;28;20235;-75
2023/01/12 02:57:41;;;;;;;3.10;1.97;;;;;;;3.40;100.00;96916.69;5046371;28;20229;-75
2023/01/12 03:00:10;;;;;;;2.20;1.73;;;;;;;3.36;100.00;96910.00;5062005;28;20229;-75
2023/01/12 03:02:38;;;;;;;4.10;1.93;;;;;;;3.35;100.00;96917.19;5044870;28;20230;-75
2023/01/12 03:05:09;;;;;;;2.87;1.60;;;;;;;3.34;100.00;96914.69;5042197;28;20277;-75
2023/01/12 03:07:46;;;;;;;2.90;1.50;;;;;;;3.33;100.00;96900.50;5043539;28;20233;-75
2023/01/12 03:10:34;;;;;;;4.50;1.80;;;;;;;3.43;100.00;96913.66;5042490;28;20233;-75
2023/01/12 03:13:08;;;;;;;2.60;1.47;;;;;;;3.45;100.00;96908.97;5043936;28;20230;-75
2023/01/12 03:15:39;;;;;;;3.07;2.20;;;;;;;3.53;100.00;96903.59;5042676;28;20202;-75
2023/01/12 03:18:13;;;;;;;4.67;2.10;;;;;;;3.53;100.00;96906.28;5045190;28;20230;-75
2023/01/12 03:20:47;;;;;;;2.17;1.97;;;;;;;3.42;100.00;96898.63;5052921;28;20301;-75
2023/01/12 03:23:21;;;;;;;3.13;1.70;;;;;;;3.45;100.00;96889.44;5050205;28;20213;-75
2023/01/12 03:25:50;;;;;;;5.70;1.70;;;;;;;3.52;100.00;96887.75;5038323;28;20234;-75
2023/01/12 03:28:20;;;;;;;4.90;2.00;;;;;;;3.56;100.00;96879.25;5039965;28;20214;-75
2023/01/12 03:30:54;;;;;;;2.93;2.10;;;;;;;3.55;100.00;96874.91;5045186;28;20224;-76
2023/01/12 03:33:23;;;;;;;3.33;1.70;;;;;;;3.47;100.00;96869.59;5037344;28;20211;-75
2023/01/12 03:35:55;;;;;;;2.03;1.40;;;;;;;3.43;100.00;96862.94;5041116;28;20190;-75
2023/01/12 03:38:30;;;;;;;1.97;1.50;;;;;;;3.46;100.00;96862.59;5045030;28;20221;-75
2023/01/12 03:41:07;;;;;;;3.60;2.00;;;;;;;3.45;100.00;96866.25;5041697;28;20209;-75
2023/01/12 03:43:40;;;;;;;4.20;1.50;;;;;;;3.47;100.00;96860.75;5047425;28;20308;-75
2023/01/12 03:46:14;;;;;;;3.17;1.53;;;;;;;3.43;100.00;96855.75;5042729;28;20225;-75
2023/01/12 03:48:47;;;;;;;4.00;1.70;;;;;;;3.46;100.00;96870.59;5046820;28;20288;-75
2023/01/12 03:51:19;;;;;;;2.80;1.50;;;;;;;3.54;100.00;96867.91;5036977;28;20230;-75
2023/01/12 03:53:49;;;;;;;5.97;1.40;;;;;;;3.61;100.00;96858.19;5046157;28;20295;-75
2023/01/12 03:56:19;;;;;;;2.47;1.53;;;;;;;3.57;100.00;96832.84;5049129;28;20194;-75
2023/01/12 03:58:47;;;;;;;1.70;1.30;;;;;;;3.56;100.00;96849.88;5046493;28;20214;-75
2023/01/12 04:01:15;;;;;;;2.03;1.43;;;;;;;3.55;100.00;96858.88;5034338;28;20206;-75
2023/01/12 04:03:42;;;;;;;2.00;1.40;;;;;;;3.53;100.00;96863.56;5044354;28;20217;-75
2023/01/12 04:06:10;;;;;;;2.60;1.30;;;;;;;3.54;100.00;96862.56;5033813;28;20237;-75
2023/01/12 04:08:37;;;;;;;4.80;1.50;;;;;;;3.54;100.00;96877.75;5037303;28;20240;-76
2023/01/12 04:12:08;;;;;;;4.23;1.43;;;;;;;3.47;100.00;96872.25;5047196;28;20332;-75
2023/01/12 04:13:52;;;;;;;1.77;1.40;;;;;;;3.46;100.00;96881.28;5035883;28;20199;-77
2023/01/12 04:16:19;;;;;;;2.00;1.00;;;;;;;3.40;100.00;96882.78;5038251;28;20203;-77
2023/01/12 04:18:46;;;;;;;4.23;1.30;;;;;;;3.42;100.00;96882.63;5042147;28;20187;-77
2023/01/12 04:24:01;;;;;;;1.43;1.20;;;;;;;3.41;100.00;96867.59;5045806;28;20254;-77
2023/01/12 04:26:28;;;;;;;3.03;1.20;;;;;;;3.39;100.00;96872.31;5042975;28;20230;-77
2023/01/12 04:28:55;;;;;;;4.23;1.20;;;;;;;3.38;100.00;96862.63;5041980;28;20256;-77
2023/01/12 04:31:22;;;;;;;3.57;1.30;;;;;;;3.33;100.00;96851.63;5041661;28;20529;-77
2023/01/12 04:33:49;;;;;;;1.83;1.17;;;;;;;3.37;100.00;96850.28;5039983;28;20198;-76
2023/01/12 04:36:17;;;;;;;3.17;1.33;;;;;;;3.33;100.00;96844.44;5039397;28;20194;-76
2023/01/12 04:38:45;;;;;;;2.40;1.13;;;;;;;3.33;100.00;96846.28;5037314;28;20206;-77
2023/01/12 04:41:12;;;;;;;4.00;1.20;;;;;;;3.33;100.00;96838.28;5032815;28;20214;-77
2023/01/12 04:43:39;;;;;;;2.17;1.30;;;;;;;3.30;100.00;96809.28;5027607;28;20203;-76
2023/01/12 04:46:10;;;;;;;1.83;1.30;;;;;;;3.45;100.00;96815.53;5043731;28;20347;-77
2023/01/12 04:48:38;;;;;;;2.20;1.00;;;;;;;3.40;100.00;96812.56;5046761;28;20274;-77
2023/01/12 04:51:08;;;;;;;1.53;1.27;;;;;;;3.38;100.00;96809.25;5030437;28;20770;-77
2023/01/12 04:53:36;;;;;;;5.40;1.40;;;;;;;3.47;100.00;96808.19;5046917;28;20212;-77
2023/01/12 04:56:05;;;;;;;3.17;1.33;;;;;;;3.40;100.00;96796.56;5045791;28;20283;-77
2023/01/12 04:58:33;;;;;;;2.63;1.23;;;;;;;3.51;100.00;96808.66;5040775;28;20206;-77
2023/01/12 05:01:08;;;;;;;1.97;1.20;;;;;;;3.39;100.00;96818.91;5038583;28;20202;-75
2023/01/12 05:03:35;;;;;;;1.40;1.10;;;;;;;3.32;100.00;96826.75;5042522;28;20202;-75
2023/01/12 05:06:03;;;;;;;2.50;1.10;;;;;;;3.35;100.00;96830.94;5045241;28;20230;-75
2023/01/12 05:11:16;;;;;;;1.73;1.10;;;;;;;3.30;100.00;96849.31;5045000;28;20237;-75
2023/01/12 05:13:43;;;;;;;2.07;1.23;;;;;;;3.35;100.00;96838.94;5043020;28;20211;-76
2023/01/12 05:16:12;;;;;;;3.60;1.70;;;;;;;3.39;100.00;96850.94;5036068;28;20225;-76
2023/01/12 05:18:39;;;;;;;2.33;1.30;;;;;;;3.34;100.00;96835.44;5041959;28;20202;-76
2023/01/12 05:21:06;;;;;;;6.67;4.60;;;;;;;3.52;100.00;96855.72;5046944;28;20206;-75
2023/01/12 05:23:33;;;;;;;3.67;3.37;;;;;;;3.44;100.00;96861.94;5042535;28;20349;-76
2023/01/12 05:26:01;;;;;;;1.63;1.53;;;;;;;3.46;100.00;96872.44;5036347;28;20267;-75
2023/01/12 05:28:30;;;;;;;1.80;1.60;;;;;;;3.35;100.00;96865.63;5033782;28;20202;-75
2023/01/12 05:31:03;;;;;;;2.63;1.80;;;;;;;3.14;100.00;96860.03;5042532;28;20202;-75
2023/01/12 05:33:30;;;;;;;4.33;1.77;;;;;;;3.11;100.00;96868.38;5039973;28;20210;-75
2023/01/12 05:35:58;;;;;;;4.23;1.57;;;;;;;3.02;100.00;96857.72;5039297;28;20209;-75
2023/01/12 05:38:25;;;;;;;3.90;3.03;;;;;;;3.06;100.00;96862.75;5046837;28;20209;-75
2023/01/12 05:40:52;;;;;;;3.83;2.60;;;;;;;3.04;100.00;96870.91;5043305;28;20206;-75
2023/01/12 05:46:06;;;;;;;4.90;2.00;;;;;;;2.87;100.00;96890.63;5045875;28;20285;-75
2023/01/12 05:48:34;;;;;;;4.87;1.90;;;;;;;2.88;100.00;96882.44;5042713;28;20293;-75
2023/01/12 05:51:01;;;;;;;5.20;2.07;;;;;;;2.89;100.00;96888.63;5044876;28;20194;-74
2023/01/12 05:53:29;;;;;;;3.50;2.97;;;;;;;2.94;100.00;96902.28;5045475;28;20209;-75
2023/01/12 05:55:56;;;;;;;6.13;2.87;;;;;;;2.93;100.00;96893.44;5045423;28;20217;-75
2023/01/12 05:58:23;;;;;;;4.37;2.60;;;;;;;2.85;100.00;96898.78;5046722;28;20210;-74
2023/01/12 06:00:50;;;;;;;4.93;2.40;;;;;;;2.91;100.00;96903.44;5042642;28;20203;-75
2023/01/12 06:03:19;;;;;;;7.47;3.00;;;;;;;2.83;100.00;96899.94;5048581;28;20222;-75
2023/01/12 06:05:52;;;;;;;3.67;2.73;;;;;;;2.81;100.00;96899.28;5053784;28;20206;-75
2023/01/12 06:08:20;;;;;;;4.87;2.30;;;;;;;2.87;100.00;96907.44;5049840;28;20206;-75
2023/01/12 06:10:47;;;;;;;4.90;2.10;;;;;;;2.93;100.00;96906.78;5047556;28;20222;-75
2023/01/12 06:16:03;;;;;;;2.77;1.70;;;;;;;2.98;100.00;96914.25;5048510;28;20233;-74
2023/01/12 06:18:34;;;;;;;7.23;3.40;;;;;;;2.99;100.00;96915.91;5049345;28;20297;-76
2023/01/12 06:21:02;;;;;;;5.37;3.30;;;;;;;3.04;100.00;96918.94;5047746;28;20287;-77
2023/01/12 06:23:29;;;;;;;6.00;3.00;;;;;;;3.06;100.00;96926.78;5035376;28;20298;-77
2023/01/12 06:25:56;;;;;;;4.23;2.83;;;;;;;3.00;100.00;96949.59;5045669;28;20214;-77
2023/01/12 06:28:23;;;;;;;4.80;2.47;;;;;;;2.92;100.00;96937.09;5044097;28;20325;-77
2023/01/12 06:30:57;;;;;;;3.60;2.40;;;;;;;2.94;100.00;96934.28;5046011;28;20209;-77
2023/01/12 06:33:24;;;;;;;4.43;2.33;;;;;;;2.93;100.00;96933.44;5041908;28;20230;-77
2023/01/12 06:35:53;;;;;;;4.17;2.30;;;;;;;2.93;100.00;96932.59;5048846;28;20218;-77
2023/01/12 06:38:22;;;;;;;3.40;1.53;;;;;;;2.94;100.00;96945.78;5048268;28;20209;-77
2023/01/12 06:40:49;;;;;;;3.37;1.40;;;;;;;2.98;100.00;96947.09;5039719;28;20330;-77
2023/01/12 06:43:16;;;;;;;1.70;1.40;;;;;;;2.98;100.00;96943.59;5041530;28;20215;-76
2023/01/12 06:45:43;;;;;;;3.70;1.83;;;;;;;3.03;100.00;96938.59;5044012;28;20364;-76
2023/01/12 06:48:11;;;;;;;3.40;1.97;;;;;;;3.07;100.00;96936.41;5044978;28;20198;-76
2023/01/12 06:50:38;;;;;;;4.43;1.60;;;;;;;2.99;100.00;96926.59;5048888;28;20201;-77
2023/01/12 06:53:07;;;;;;;3.20;2.30;;;;;;;3.02;100.00;96942.28;5040272;28;20211;-77
2023/01/12 06:55:34;;;;;;;4.07;2.70;;;;;;;2.90;100.00;96933.78;5047555;28;20297;-75
2023/01/12 06:58:03;;;;;;;6.70;3.00;;;;;;;2.93;100.00;96945.94;5042949;28;20206;-75
2023/01/12 07:00:30;;;;;;;3.80;2.93;;;;;;;2.99;100.00;96940.75;5042915;28;20278;-75
2023/01/12 07:02:57;;;;;;;3.27;1.93;;;;;;;2.99;100.00;96919.41;5045042;28;20210;-75
2023/01/12 07:05:24;;;;;;;2.80;1.80;;;;;;;2.95;100.00;96920.78;5042729;28;20202;-75
2023/01/12 07:07:58;;;;;;;6.40;2.43;;;;;;;3.00;100.00;96939.78;5042553;28;20226;-75
2023/01/12 07:10:27;;;;;;;3.63;2.43;;;;;;;3.03;100.00;96954.63;5033091;28;20256;-75
2023/01/12 07:12:54;;;;;;;4.77;2.73;;;;;;;2.99;100.00;96950.59;5054593;28;20233;-75
2023/01/12 07:15:21;;;;;;;2.80;1.93;;;;;;;2.83;100.00;96947.94;5043075;28;20214;-74
2023/01/12 07:17:48;;;;;;;3.17;2.07;;;;;;;2.77;100.00;96938.78;5034213;28;20221;-75
2023/01/12 07:20:15;;;;;;;4.13;2.20;;;;;;;2.77;100.00;96944.13;5045979;28;20210;-75
2023/01/12 07:22:42;;;;;;;3.30;2.27;;;;;;;2.79;100.00;96939.47;5032393;28;20194;-75
2023/01/12 07:25:09;;;;;;;4.63;2.13;;;;;;;2.86;100.00;96943.13;5037441;28;20231;-75
2023/01/12 07:27:38;;;;;;;2.93;2.30;;;;;;;2.84;100.00;96947.78;5044365;28;20223;-75
2023/01/12 07:30:09;;;;;;;3.80;2.27;;;;;;;2.89;100.00;96950.78;5033443;28;20210;-75
2023/01/12 07:32:36;;;;;;;2.23;2.03;;;;;;;2.89;100.00;96937.44;5041686;28;20329;-75
2023/01/12 07:35:03;;;;;;;3.40;1.87;;;;;;;2.88;100.00;96935.78;5039264;28;20208;-76
2023/01/12 07:37:30;;;;;;;2.10;1.80;;;;;;;3.08;100.00;96940.75;5044423;28;20215;-77
2023/01/12 07:39:57;;;;;;;4.47;1.80;;;;;;;3.12;100.00;96936.75;5038971;28;20210;-77
2023/01/12 07:42:23;;;;;;;3.13;1.80;;;;;;;3.21;100.00;96925.06;5043824;28;20202;-77
2023/01/12 07:44:53;;;;;;;2.57;1.97;;;;;;;3.24;100.00;96938.06;5031148;28;20199;-77
2023/01/12 07:47:20;;;;;;;2.17;1.60;;;;;;;3.35;100.00;96929.69;5034092;28;20231;-77
2023/01/12 07:49:47;;;;;;;2.67;1.77;;;;;;;3.36;100.00;96928.69;5040222;28;20206;-77
2023/01/12 07:52:14;;;;;;;4.23;1.40;;;;;;;3.39;100.00;96912.34;5046487;28;20348;-77
2023/01/12 07:54:41;;;;;;;4.47;1.70;;;;;;;3.46;100.00;96910.66;5040340;28;20206;-77
2023/01/12 07:57:10;;;;;;;2.67;1.70;;;;;;;3.52;100.00;96895.75;5041380;28;20194;-77
2023/01/12 07:59:37;;;;;;;2.97;1.63;;;;;;;3.57;100.00;96899.59;5039342;28;20237;-77
2023/01/12 08:02:06;;;;;;;1.70;1.50;;;;;;;3.63;100.00;96896.22;5037470;28;20275;-77
2023/01/12 08:04:33;;;;;;;1.93;1.43;;;;;;;3.71;100.00;96884.66;5042899;28;20210;-77
2023/01/12 08:07:00;;;;;;;2.40;1.60;;;;;;;3.76;100.00;96876.94;5040021;28;20241;-77
2023/01/12 08:09:27;;;;;;;4.43;1.90;;;;;;;3.82;100.00;96883.44;5034413;28;20279;-75
2023/01/12 08:11:54;;;;;;;4.17;1.80;;;;;;;3.92;100.00;96870.69;5036024;28;20318;-74
2023/01/12 08:14:27;;;;;;;3.50;1.80;;;;;;;3.89;100.00;96876.41;5045668;28;20259;-75
2023/01/12 08:16:55;;;;;;;2.63;1.60;;;;;;;3.91;100.00;96869.06;5045400;28;20220;-75
2023/01/12 08:19:29;;;;;;;4.40;1.60;;;;;;;3.94;100.00;96884.72;5037170;28;20202;-75
2023/01/12 08:21:59;;;;;;;1.80;1.50;;;;;;;3.97;100.00;96876.34;5030504;28;20218;-75
2023/01/12 08:24:31;;;;;;;2.30;1.43;;;;;;;4.03;100.00;96886.31;5038729;28;20235;-77
2023/01/12 08:27:02;;;;;;;4.53;1.50;;;;;;;4.06;100.00;96884.16;5043078;28;20222;-76
2023/01/12 08:29:35;;;;;;;1.90;1.30;;;;;;;4.09;100.00;96881.09;5043089;28;20217;-77
2023/01/12 08:32:05;;;;;;;2.00;1.80;;;;;;;4.08;100.00;96883.97;5039076;28;20199;-77
2023/01/12 08:34:34;;;;;;;3.47;1.90;;;;;;;4.09;100.00;96896.31;5039677;28;20206;-77
2023/01/12 08:37:09;;;;;;;4.87;2.10;;;;;;;4.22;100.00;96885.03;5043495;28;20198;-77
2023/01/12 08:39:37;;;;;;;2.33;1.83;;;;;;;4.21;100.00;96870.84;5039837;28;20259;-77
2023/01/12 08:42:07;;;;;;;2.20;1.50;;;;;;;4.21;100.00;96864.66;5048036;28;20210;-77
2023/01/12 08:44:35;;;;;;;2.37;1.80;;;;;;;4.31;100.00;96870.59;5049933;28;20291;-76
2023/01/12 08:47:02;;;;;;;2.13;1.50;;;;;;;4.42;100.00;96875.56;5045101;28;20222;-77
2023/01/12 08:49:31;;;;;;;3.80;1.37;;;;;;;4.51;100.00;96877.94;5034257;28;20207;-77
2023/01/12 08:51:59;;;;;;;1.70;1.20;;;;;;;4.53;100.00;96880.44;5045716;28;20209;-76
2023/01/12 08:54:26;;;;;;;2.27;1.13;;;;;;;4.62;100.00;96873.19;5032058;28;20213;-76
2023/01/12 08:56:53;;;;;;;1.27;1.10;;;;;;;4.74;100.00;96887.81;5047180;28;20201;-76
2023/01/12 08:59:20;;;;;;;1.10;1.00;;;;;;;4.81;100.00;96878.03;5042330;28;20210;-77
2023/01/12 09:01:48;;;;;;;3.90;0.93;;;;;;;4.92;100.00;96864.22;5042412;28;20241;-77
2023/01/12 09:04:15;;;;;;;4.90;1.70;;;;;;;4.91;100.00;96851.88;5029642;28;20207;-74
2023/01/12 09:06:44;;;;;;;7.13;3.20;;;;;;;5.03;100.00;96860.25;5042583;28;20222;-75
2023/01/12 09:09:15;;;;;;;3.97;2.00;;;;;;;5.12;100.00;96880.56;5043563;28;20229;-74
2023/01/12 09:11:44;;;;;;;1.50;1.23;;;;;;;5.18;100.00;96867.31;5039781;28;20230;-75
2023/01/12 09:14:11;;;;;;;3.33;2.00;;;;;;;5.24;100.00;96869.25;5045634;28;20205;-75
2023/01/12 09:16:39;;;;;;;3.73;1.73;;;;;;;5.29;100.00;96863.31;5043420;28;20193;-75
2023/01/12 09:19:07;;;;;;;5.80;1.70;;;;;;;5.38;100.00;96875.59;5040349;28;20199;-75
2023/01/12 09:21:37;;;;;;;5.90;3.07;;;;;;;5.46;100.00;96877.34;5030911;28;20202;-75
2023/01/12 09:24:05;;;;;;;5.20;2.70;;;;;;;5.46;100.00;96883.53;5043600;28;20297;-75
2023/01/12 09:26:38;;;;;;;2.63;1.60;;;;;;;5.50;100.00;96900.09;5041138;28;20221;-75
2023/01/12 09:29:09;;;;;;;3.50;1.83;;;;;;;5.48;100.00;96900.25;5044187;28;20228;-75
2023/01/12 09:31:38;;;;;;;3.80;2.40;;;;;;;5.44;100.00;96890.94;5043394;28;20202;-75
2023/01/12 09:34:07;;;;;;;4.73;2.37;;;;;;;5.29;100.00;96864.16;5035840;28;20255;-75
2023/01/12 09:36:36;;;;;;;6.03;2.73;;;;;;;5.37;100.00;96876.63;5045950;28;20194;-75
2023/01/12 09:39:04;;;;;;;5.57;3.10;;;;;;;5.41;100.00;96885.13;5051199;28;20206;-75
2023/01/12 09:47:20;;;;;;;10.60;6.03;;;;;;;5.50;100.00;96871.47;5042497;28;20301;-75
2023/01/12 09:49:51;;;;;;;7.47;4.33;;;;;;;5.56;100.00;96877.91;5048156;28;20221;-75
2023/01/12 09:52:22;;;;;;;5.43;2.53;;;;;;;5.54;100.00;96894.16;5041845;28;20202;-75
2023/01/12 09:54:51;;;;;;;6.13;2.10;;;;;;;5.52;100.00;96887.34;5051206;28;20203;-74
2023/01/12 09:57:40;;;;;;;5.13;2.17;;;;;;;5.57;100.00;96884.94;5053223;28;20191;-75
2023/01/12 10:00:11;;;;;;;5.13;2.23;;;;;;;5.65;100.00;96882.16;5035587;28;20278;-75
2023/01/12 10:02:45;;;;;;;5.43;2.30;;;;;;;5.71;100.00;96884.06;5036043;28;20215;-75
2023/01/12 10:05:26;;;;;;;4.00;2.70;;;;;;;5.71;100.00;96876.03;5040051;28;20203;-74
2023/01/12 10:07:55;;;;;;;7.80;4.57;;;;;;;5.78;100.00;96876.97;5040788;28;20231;-75
2023/01/12 10:10:22;;;;;;;5.17;3.57;;;;;;;5.86;100.00;96881.41;5049603;28;20218;-75
2023/01/12 10:12:56;;;;;;;6.10;3.77;;;;;;;5.85;100.00;96866.31;5045170;28;20247;-74
2023/01/12 10:15:42;;;;;;;7.43;4.20;;;;;;;5.84;100.00;96862.81;5051870;28;20206;-75
2023/01/12 10:18:20;;;;;;;4.00;3.40;;;;;;;5.85;100.00;96858.28;5045666;28;20202;-75
2023/01/12 10:20:47;;;;;;;6.23;4.20;;;;;;;5.91;100.00;96866.44;5040513;28;20261;-74
2023/01/12 10:23:18;;;;;;;7.23;3.43;;;;;;;5.97;100.00;96863.00;5044758;28;20206;-74
2023/01/12 10:25:47;;;;;;;6.73;2.93;;;;;;;5.98;100.00;96856.59;5038571;28;20237;-75
2023/01/12 10:28:28;;;;;;;5.83;2.93;;;;;;;5.97;100.00;96852.25;5045386;28;20231;-74
2023/01/12 10:30:56;;;;;;;8.27;3.73;;;;;;;5.99;100.00;96852.91;5036044;28;20210;-74
2023/01/12 10:33:25;;;;;;;8.63;3.60;;;;;;;5.95;100.00;96843.59;5046358;28;20229;-75
2023/01/12 10:35:56;;;;;;;6.47;3.13;;;;;;;5.99;100.00;96830.63;5046705;28;20212;-74
2023/01/12 10:38:26;;;;;;;5.33;3.10;;;;;;;6.03;100.00;96810.50;5041126;28;20266;-75
2023/01/12 10:41:17;;;;;;;7.37;2.83;;;;;;;6.05;100.00;96811.94;5042269;28;20239;-75
2023/01/12 10:44:05;;;;;;;6.90;2.53;;;;;;;6.07;100.00;96815.25;5038353;28;20305;-74
2023/01/12 10:46:34;;;;;;;3.73;2.47;;;;;;;6.15;100.00;96805.44;5043657;28;20213;-75
2023/01/12 10:49:16;;;;;;;2.87;1.90;;;;;;;6.25;100.00;96792.53;5038020;28;20226;-77
2023/01/12 10:51:51;;;;;;;3.97;2.00;;;;;;;6.29;100.00;96788.47;5030706;28;20199;-77
2023/01/12 10:54:22;;;;;;;4.83;1.80;;;;;;;6.33;100.00;96785.19;5047032;28;20293;-77
2023/01/12 10:56:59;;;;;;;2.80;1.87;;;;;;;6.35;100.00;96774.28;5040917;28;20206;-75
2023/01/12 10:59:30;;;;;;;3.13;1.73;;;;;;;6.33;100.00;96754.84;5044043;28;20214;-75
2023/01/12 11:02:15;;;;;;;3.33;2.20;;;;;;;6.58;100.00;96774.88;5044958;28;20256;-75
2023/01/12 11:04:44;;;;;;;7.47;2.53;;;;;;;6.50;100.00;96764.28;5048267;28;20206;-75
2023/01/12 11:07:12;;;;;;;3.83;2.10;;;;;;;6.57;100.00;96785.78;5037129;28;20242;-75
2023/01/12 11:09:40;;;;;;;3.60;2.07;;;;;;;6.62;100.00;96786.06;5051712;28;20240;-75
2023/01/12 11:12:21;;;;;;;4.73;2.50;;;;;;;6.61;100.00;96790.59;5039345;28;20233;-75
2023/01/12 11:15:03;;;;;;;3.90;2.07;;;;;;;6.57;100.00;96789.31;5041972;28;20230;-75
2023/01/12 11:17:46;;;;;;;6.07;2.17;;;;;;;6.56;100.00;96809.09;5038048;28;20301;-75
2023/01/12 11:20:21;;;;;;;5.13;2.23;;;;;;;6.67;100.00;96795.16;5042675;28;20286;-75
2023/01/12 11:22:51;;;;;;;3.07;1.73;;;;;;;6.57;100.00;96778.56;5044722;28;20227;-75
2023/01/12 11:25:23;;;;;;;4.60;2.10;;;;;;;6.60;100.00;96802.34;5040883;28;20238;-75
2023/01/12 11:27:55;;;;;;;3.60;2.00;;;;;;;6.57;100.00;96794.66;5043351;28;20228;-75
2023/01/12 11:30:31;;;;;;;4.33;1.80;;;;;;;6.69;100.00;96790.44;5047832;28;20231;-75
2023/01/12 11:33:07;;;;;;;2.47;1.63;;;;;;;6.73;100.00;96786.31;5041249;28;20210;-75
2023/01/12 11:35:40;;;;;;;4.67;2.00;;;;;;;6.64;100.00;96776.75;5042719;28;20230;-75
2023/01/12 11:38:12;;;;;;;3.03;2.10;;;;;;;6.73;100.00;96783.63;5041592;28;20273;-75
2023/01/12 11:40:41;;;;;;;9.30;2.27;;;;;;;6.69;100.00;96768.97;5043696;28;20206;-75
2023/01/12 11:46:17;;;;;;;3.47;2.30;;;;;;;6.87;100.00;96786.44;5035047;28;20230;-75
2023/01/12 11:48:49;;;;;;;3.87;2.50;;;;;;;6.88;100.00;96772.81;5041042;28;20218;-75
2023/01/12 11:51:16;;;;;;;6.90;2.30;;;;;;;6.84;100.00;96768.84;5045979;28;20206;-75
2023/01/12 11:53:43;;;;;;;3.80;2.33;;;;;;;6.86;100.00;96774.88;5039219;28;20221;-74
2023/01/12 11:56:42;;;;;;;4.73;2.63;;;;;;;6.90;100.00;96780.66;5042190;28;20210;-75
2023/01/12 11:59:15;;;;;;;5.57;1.97;;;;;;;6.91;100.00;96776.94;5042582;28;20226;-75
2023/01/12 12:01:50;;;;;;;1.83;1.57;;;;;;;6.86;100.00;96748.03;5041549;28;20256;-74
2023/01/12 12:04:31;;;;;;;3.40;1.50;;;;;;;6.90;100.00;96760.00;5046229;28;20210;-75
2023/01/12 12:07:17;;;;;;;6.10;2.60;;;;;;;7.08;100.00;96762.19;5039006;28;20230;-75
2023/01/12 12:09:59;;;;;;;6.37;3.07;;;;;;;7.08;100.00;96752.28;5041159;28;20210;-76
2023/01/12 12:12:34;;;;;;;5.97;2.60;;;;;;;7.15;100.00;96754.97;5044515;28;20209;-75
2023/01/12 12:15:22;;;;;;;4.07;2.60;;;;;;;7.00;100.00;96722.91;5049710;28;20205;-74
2023/01/12 12:17:58;;;;;;;3.10;2.40;;;;;;;7.08;100.00;96751.44;5043259;28;20210;-75
2023/01/12 12:20:33;;;;;;;5.07;2.53;;;;;;;7.03;100.00;96743.16;5034901;28;20217;-75
2023/01/12 12:23:11;;;;;;;5.70;2.63;;;;;;;7.15;100.00;96753.13;5044304;28;20217;-74
2023/01/12 12:25:49;;;;;;;3.27;2.70;;;;;;;7.10;100.00;96736.78;5043370;28;20252;-75